Time;durP1;ratioP1;P1;durP2;ratioP2;P2;SDS_P1;SDS_P2;PMS_P1;PMS_P2;Temp;Humidity;BMP_temperature;BMP_pressure;BME280_temperature;BME280_humidity;BME280_pressure;Samples;Min_cycle;Max_cycle;Signal;HPM_P1;HPM_P2
2022/07/02 00:01:20;;;;;;;;;18.00;17.00;;;;;31.70;34.45;99129.59;5090402;28;8828;-72
2022/07/02 00:03:52;;;;;;;;;18.50;17.50;;;;;31.71;34.64;99124.06;5090406;28;8867;-71
2022/07/02 00:06:21;;;;;;;;;15.75;15.75;;;;;31.71;34.01;99124.06;5090301;28;8838;-71
2022/07/02 00:08:52;;;;;;;;;14.50;14.50;;;;;31.66;34.56;99123.63;5090255;28;8852;-73
2022/07/02 00:11:21;;;;;;;;;18.25;17.75;;;;;31.60;35.06;99125.06;5090519;28;8852;-73
2022/07/02 00:13:51;;;;;;;;;16.75;16.00;;;;;31.58;34.90;99126.22;5087203;28;8853;-73
2022/07/02 00:16:19;;;;;;;;;16.00;14.75;;;;;31.54;34.80;99124.81;5087637;28;9599;-72
2022/07/02 00:18:49;;;;;;;;;14.50;14.50;;;;;31.37;34.47;99121.81;5070351;28;8876;-72
2022/07/02 00:21:19;;;;;;;;;15.00;14.50;;;;;31.35;34.85;99136.44;5104552;28;8850;-72
2022/07/02 00:23:48;;;;;;;;;14.25;14.25;;;;;31.26;35.66;99133.59;5087353;28;8845;-73
2022/07/02 00:26:26;;;;;;;;;17.75;17.00;;;;;31.21;35.73;99141.28;5070450;28;9051;-73
2022/07/02 00:29:03;;;;;;;;;14.50;14.50;;;;;31.22;35.71;99144.81;5087210;28;8910;-72
2022/07/02 00:31:35;;;;;;;;;17.25;16.75;;;;;31.23;36.55;99144.69;5087413;28;8854;-72
2022/07/02 00:34:05;;;;;;;;;21.50;18.75;;;;;31.10;36.90;99149.50;5087166;28;8846;-74
2022/07/02 00:36:35;;;;;;;;;21.00;20.25;;;;;30.81;38.15;99150.28;5086514;28;8897;-72
2022/07/02 00:39:03;;;;;;;;;20.75;20.75;;;;;30.28;39.09;99151.44;5087039;28;8845;-74
2022/07/02 00:41:34;;;;;;;;;17.25;16.75;;;;;29.93;39.64;99151.88;5086991;28;9685;-74
2022/07/02 00:44:04;;;;;;;;;20.00;17.25;;;;;29.86;39.84;99153.38;5088216;28;8833;-73
2022/07/02 00:46:35;;;;;;;;;16.75;16.00;;;;;29.68;39.67;99161.16;5090119;28;8990;-72
2022/07/02 00:49:04;;;;;;;;;18.00;17.25;;;;;29.62;39.59;99159.00;5088047;28;8832;-73
2022/07/02 00:51:33;;;;;;;;;20.50;18.50;;;;;29.59;40.21;99167.34;5089234;28;8982;-72
2022/07/02 00:54:03;;;;;;;;;20.50;19.00;;;;;29.64;40.06;99159.72;5070388;28;8848;-73
2022/07/02 00:56:34;;;;;;;;;19.00;19.00;;;;;29.49;40.01;99164.56;5089669;28;8844;-72
2022/07/02 00:59:04;;;;;;;;;17.00;17.00;;;;;29.64;39.61;99167.78;5089454;28;8855;-72
2022/07/02 01:01:32;;;;;;;;;18.25;18.25;;;;;29.75;39.49;99162.38;5089568;28;8863;-73
2022/07/02 01:04:02;;;;;;;;;16.00;14.75;;;;;29.85;39.49;99168.66;5089107;28;9696;-72
2022/07/02 01:06:33;;;;;;;;;14.25;14.25;;;;;29.95;39.56;99162.50;5089274;28;9679;-72
2022/07/02 01:11:51;;;;;;;;;18.50;18.50;;;;;30.11;39.16;99155.63;5089436;28;8823;-72
2022/07/02 01:14:21;;;;;;;;;20.50;19.25;;;;;30.17;38.61;99156.06;5070474;28;9593;-73
2022/07/02 01:16:50;;;;;;;;;17.75;17.50;;;;;30.22;39.05;99149.28;5089122;28;8847;-73
2022/07/02 01:19:20;;;;;;;;;20.50;19.00;;;;;30.22;38.55;99146.59;5088877;28;8851;-71
2022/07/02 01:22:24;;;;;;;;;20.25;20.25;;;;;30.27;38.20;99146.19;5089590;28;8870;-73
2022/07/02 01:24:54;;;;;;;;;21.00;19.75;;;;;30.26;38.75;99148.00;5046309;28;8943;-72
2022/07/02 01:27:24;;;;;;;;;21.50;19.75;;;;;30.27;38.25;99149.72;5046403;28;9611;-73
2022/07/02 01:29:53;;;;;;;;;22.00;20.25;;;;;30.27;38.78;99152.44;5046221;28;9600;-72
2022/07/02 01:32:21;;;;;;;;;17.25;17.00;;;;;30.25;38.68;99153.56;5046263;28;8896;-74
2022/07/02 01:34:53;;;;;;;;;18.00;17.75;;;;;30.25;37.94;99161.63;5012956;28;8943;-73
2022/07/02 01:37:24;;;;;;;;;16.00;16.00;;;;;30.25;37.97;99162.47;5045996;28;8909;-72
2022/07/02 01:39:52;;;;;;;;;17.00;16.25;;;;;30.22;37.79;99151.97;5046073;28;8842;-73
2022/07/02 01:42:21;;;;;;;;;18.00;17.75;;;;;30.22;37.86;99159.19;5046058;28;8865;-73
2022/07/02 01:44:51;;;;;;;;;16.50;13.75;;;;;30.22;37.61;99164.59;5046064;28;8973;-72
2022/07/02 01:47:20;;;;;;;;;16.00;15.50;;;;;30.21;37.48;99166.44;5046001;28;8839;-72
2022/07/02 01:49:48;;;;;;;;;15.75;15.50;;;;;30.21;37.53;99166.44;5048621;28;8900;-73
2022/07/02 01:52:17;;;;;;;;;14.50;14.50;;;;;30.18;37.63;99173.91;5050033;28;9627;-72
2022/07/02 01:54:48;;;;;;;;;16.00;16.00;;;;;30.15;37.97;99183.09;5051988;28;8830;-72
2022/07/02 01:57:17;;;;;;;;;21.00;18.50;;;;;30.14;37.71;99184.09;5092763;28;8961;-74
2022/07/02 01:59:45;;;;;;;;;16.40;16.40;;;;;30.15;37.80;99183.09;5091313;28;8865;-74
2022/07/02 02:02:14;;;;;;;;;13.25;12.75;;;;;30.13;37.50;99191.31;5092672;28;9648;-72
2022/07/02 02:04:42;;;;;;;;;14.50;14.25;;;;;30.15;37.46;99199.22;5091261;28;8867;-73
2022/07/02 02:07:11;;;;;;;;;23.25;21.50;;;;;28.80;41.70;99240.13;5092513;28;8851;-73
2022/07/02 02:09:40;;;;;;;;;20.00;20.00;;;;;27.50;46.46;99257.34;5092381;28;9747;-75
2022/07/02 02:12:10;;;;;;;;;22.00;21.00;;;;;27.62;45.71;99226.97;5092700;28;8839;-75
2022/07/02 02:14:39;;;;;;;;;19.75;18.25;;;;;27.94;44.93;99215.59;5091204;28;8928;-74
2022/07/02 02:17:08;;;;;;;;;21.75;20.25;;;;;27.69;45.50;99244.25;5092838;28;8828;-75
2022/07/02 02:19:37;;;;;;;;;23.00;19.75;;;;;27.85;45.14;99235.91;5092717;28;8859;-77
2022/07/02 02:22:06;;;;;;;;;23.25;22.00;;;;;28.13;44.59;99237.31;5074191;28;8925;-77
2022/07/02 02:24:34;;;;;;;;;19.00;16.50;;;;;28.33;43.91;99238.41;5092667;28;8850;-74
2022/07/02 02:27:03;;;;;;;;;22.50;21.00;;;;;28.03;45.70;99256.91;5092337;28;8858;-76
2022/07/02 02:29:33;;;;;;;;;23.00;20.75;;;;;28.00;46.67;99258.03;5091232;28;8867;-74
2022/07/02 02:32:02;;;;;;;;;28.25;25.75;;;;;28.03;46.86;99257.75;5092368;28;8832;-75
2022/07/02 02:34:30;;;;;;;;;24.75;24.75;;;;;28.02;47.53;99263.28;5094402;28;8876;-74
2022/07/02 02:36:59;;;;;;;;;23.50;22.75;;;;;28.08;47.91;99262.78;5093055;28;8844;-75
2022/07/02 02:39:28;;;;;;;;;27.25;25.25;;;;;27.93;48.48;99281.75;5074300;28;8908;-74
2022/07/02 02:41:56;;;;;;;;;37.50;32.75;;;;;27.49;50.68;99293.16;5092038;28;8856;-75
2022/07/02 02:44:25;;;;;;;;;38.00;34.25;;;;;26.93;52.63;99307.03;5092163;28;8856;-74
2022/07/02 02:46:55;;;;;;;;;41.00;35.75;;;;;26.93;53.96;99307.88;5092080;28;8820;-74
2022/07/02 02:49:23;;;;;;;;;43.00;36.25;;;;;26.98;54.64;99315.59;5092113;28;8832;-72
2022/07/02 02:51:52;;;;;;;;;44.25;35.75;;;;;26.93;55.02;99313.22;5092069;28;8856;-73
2022/07/02 02:54:20;;;;;;;;;41.50;36.25;;;;;26.93;54.75;99317.72;5090682;28;8855;-73
2022/07/02 02:56:49;;;;;;;;;42.75;36.50;;;;;26.96;54.72;99317.50;5093441;28;8890;-73
2022/07/02 02:59:17;;;;;;;;;39.50;34.25;;;;;26.92;55.63;99321.34;5095813;28;8863;-74
2022/07/02 03:01:46;;;;;;;;;36.50;33.50;;;;;26.82;55.51;99316.69;5094208;28;8855;-74
2022/07/02 03:04:16;;;;;;;;;44.50;37.25;;;;;26.82;55.81;99316.69;5089224;28;8857;-74
2022/07/02 03:06:44;;;;;;;;;39.25;35.00;;;;;26.98;55.12;99311.06;5056122;28;8842;-76
2022/07/02 03:09:13;;;;;;;;;45.50;38.25;;;;;27.10;55.02;99309.31;5089088;28;8838;-75
2022/07/02 03:11:41;;;;;;;;;36.75;33.75;;;;;27.17;54.67;99304.38;5089247;28;10124;-76
2022/07/02 03:14:10;;;;;;;;;35.50;32.75;;;;;27.25;54.15;99304.69;5088707;28;8872;-74
2022/07/02 03:16:39;;;;;;;;;38.50;34.25;;;;;27.23;53.82;99302.09;5056015;28;8834;-72
2022/07/02 03:19:07;;;;;;;;;36.75;32.50;;;;;27.17;53.80;99299.88;5071784;28;8974;-75
2022/07/02 03:21:37;;;;;;;;;47.25;40.50;;;;;27.16;53.63;99305.34;5088722;28;8846;-73
2022/07/02 03:24:07;;;;;;;;;34.75;32.00;;;;;27.09;53.72;99304.06;5088579;28;8861;-73
2022/07/02 03:26:35;;;;;;;;;32.25;30.00;;;;;27.01;54.07;99307.31;5072156;28;8942;-74
2022/07/02 03:29:04;;;;;;;;;34.00;32.00;;;;;26.86;54.45;99313.78;5088385;28;8834;-74
2022/07/02 03:31:33;;;;;;;;;31.50;29.25;;;;;26.83;54.58;99329.09;5088874;28;8870;-74
2022/07/02 03:34:02;;;;;;;;;28.50;24.00;;;;;26.89;54.71;99326.94;5040189;28;8853;-74
2022/07/02 03:36:30;;;;;;;;;28.75;28.75;;;;;26.83;54.65;99326.41;5091632;28;8878;-74
2022/07/02 03:39:00;;;;;;;;;30.25;27.25;;;;;26.81;54.76;99322.16;5091332;28;8891;-73
2022/07/02 03:41:29;;;;;;;;;26.00;26.00;;;;;26.66;55.50;99329.44;5055441;28;8890;-75
2022/07/02 03:43:57;;;;;;;;;30.50;29.75;;;;;26.77;54.77;99337.56;5072296;28;8859;-74
2022/07/02 03:46:26;;;;;;;;;29.75;26.50;;;;;26.86;54.96;99345.88;5089574;28;8866;-74
2022/07/02 03:48:55;;;;;;;;;37.75;34.00;;;;;26.90;54.44;99345.56;5089647;28;8878;-74
2022/07/02 03:51:23;;;;;;;;;29.00;27.50;;;;;26.94;54.50;99357.75;5090911;28;8851;-74
2022/07/02 03:53:52;;;;;;;;;27.50;26.75;;;;;26.98;54.04;99380.66;5089224;28;8863;-73
2022/07/02 03:56:22;;;;;;;;;31.75;29.50;;;;;26.72;54.91;99400.38;5072146;28;8872;-73
2022/07/02 03:58:50;;;;;;;;;26.50;26.25;;;;;25.95;57.27;99422.44;5090712;28;8843;-76
2022/07/02 04:01:19;;;;;;;;;25.25;24.25;;;;;25.41;59.52;99438.44;5090384;28;8827;-69
2022/07/02 04:03:48;;;;;;;;;28.50;23.00;;;;;25.19;59.94;99439.72;5090162;28;8870;-71
2022/07/02 04:06:16;;;;;;;;;21.00;21.00;;;;;24.92;60.87;99430.81;5090306;28;8835;-75
2022/07/02 04:08:45;;;;;;;;;16.00;15.60;;;;;24.63;61.72;99446.75;5090805;28;8854;-74
2022/07/02 04:11:13;;;;;;;;;14.40;14.40;;;;;24.41;62.58;99456.00;5089943;28;8958;-72
2022/07/02 04:13:43;;;;;;;;;22.20;20.80;;;;;24.43;62.79;99453.25;5090621;28;8936;-73
2022/07/02 04:16:12;;;;;;;;;19.20;17.80;;;;;24.52;62.19;99464.25;5090128;28;8848;-73
2022/07/02 04:18:42;;;;;;;;;15.80;14.80;;;;;24.39;62.11;99473.06;5089128;28;8936;-74
2022/07/02 04:21:11;;;;;;;;;19.20;16.00;;;;;24.16;62.94;99487.69;5092443;28;8860;-72
2022/07/02 04:23:40;;;;;;;;;16.00;14.00;;;;;24.19;63.07;99499.03;5093529;28;8856;-72
2022/07/02 04:26:08;;;;;;;;;14.60;12.40;;;;;24.31;62.70;99489.50;5091186;28;8843;-73
2022/07/02 04:28:37;;;;;;;;;14.00;14.00;;;;;24.36;62.50;99479.41;5090091;28;8852;-73
2022/07/02 04:31:07;;;;;;;;;17.60;13.20;;;;;24.37;63.39;99486.47;5088674;28;8874;-73
2022/07/02 04:33:35;;;;;;;;;12.40;12.20;;;;;24.63;61.98;99495.63;5090112;28;8820;-73
2022/07/02 04:36:04;;;;;;;;;15.60;14.60;;;;;24.59;61.75;99494.06;5090061;28;8978;-73
2022/07/02 04:38:33;;;;;;;;;16.00;14.40;;;;;24.37;62.27;99496.28;5049626;28;8853;-73
2022/07/02 04:41:01;;;;;;;;;13.40;12.60;;;;;24.68;61.27;99516.66;5049563;28;8865;-73
2022/07/02 04:43:30;;;;;;;;;14.40;13.40;;;;;24.89;59.83;99526.03;5049431;28;8966;-73
2022/07/02 04:45:58;;;;;;;;;12.80;12.80;;;;;24.71;59.72;99535.16;5049546;28;8829;-73
2022/07/02 04:48:28;;;;;;;;;12.60;11.60;;;;;24.27;61.58;99531.47;5048101;28;8915;-74
2022/07/02 04:50:56;;;;;;;;;13.80;13.80;;;;;24.13;61.28;99532.22;5049439;28;8888;-74
2022/07/02 04:53:26;;;;;;;;;12.60;12.60;;;;;24.36;60.71;99546.03;5049181;28;8857;-74
2022/07/02 04:55:54;;;;;;;;;14.40;13.40;;;;;24.14;61.05;99533.09;5049037;28;8851;-74
2022/07/02 04:58:23;;;;;;;;;12.80;12.80;;;;;24.10;61.37;99535.06;5049138;28;8959;-74
2022/07/02 05:00:52;;;;;;;;;12.20;11.60;;;;;24.25;61.08;99537.78;5047763;28;8845;-70
2022/07/02 05:03:20;;;;;;;;;15.20;11.40;;;;;24.49;60.58;99544.38;5048655;28;8983;-74
2022/07/02 05:05:50;;;;;;;;;15.60;15.40;;;;;24.42;61.10;99559.00;5046520;28;9666;-75
2022/07/02 05:08:24;;;;;;;;;15.80;14.80;;;;;24.44;61.64;99577.59;5046787;28;8837;-73
2022/07/02 05:10:52;;;;;;;;;16.20;14.80;;;;;24.41;62.04;99581.28;5046506;28;8852;-74
2022/07/02 05:13:21;;;;;;;;;14.00;13.80;;;;;24.73;60.60;99583.94;5046288;28;9613;-74
2022/07/02 05:15:51;;;;;;;;;14.60;12.60;;;;;24.59;60.65;99599.88;5046299;28;8868;-72
2022/07/02 05:18:20;;;;;;;;;12.80;9.80;;;;;24.63;60.69;99604.97;5046468;28;8867;-71
2022/07/02 05:20:50;;;;;;;;;10.00;10.00;;;;;24.48;61.31;99611.09;5046231;28;8833;-72
2022/07/02 05:23:18;;;;;;;;;14.60;12.60;;;;;24.30;61.38;99605.88;5046046;28;10067;-71
2022/07/02 05:25:47;;;;;;;;;7.00;7.00;;;;;24.23;61.53;99611.66;5046249;28;8985;-74
2022/07/02 05:28:16;;;;;;;;;11.20;10.00;;;;;24.37;60.77;99621.56;5013315;28;8829;-73
2022/07/02 05:30:44;;;;;;;;;2.00;2.00;;;;;24.32;60.83;99621.78;5046120;28;8832;-71
2022/07/02 05:33:13;;;;;;;;;8.20;8.20;;;;;24.22;60.99;99629.44;5046225;28;8868;-72
2022/07/02 05:35:42;;;;;;;;;9.20;8.80;;;;;24.26;60.87;99624.81;4996720;28;8942;-72
2022/07/02 05:38:11;;;;;;;;;9.40;9.00;;;;;24.39;60.38;99628.50;5063506;28;8940;-71
2022/07/02 05:40:40;;;;;;;;;14.00;12.00;;;;;24.57;59.58;99637.28;5088809;28;8871;-73
2022/07/02 05:43:09;;;;;;;;;10.80;10.40;;;;;24.88;58.51;99633.72;5087403;28;8935;-73
2022/07/02 05:45:38;;;;;;;;;14.00;10.60;;;;;25.05;57.71;99605.19;5088699;28;8851;-74
2022/07/02 05:48:10;;;;;;;;;12.40;12.40;;;;;25.32;55.97;99618.72;5088746;28;8864;-72
2022/07/02 05:50:39;;;;;;;;;14.00;13.00;;;;;25.61;55.66;99605.38;5088467;28;8863;-74
2022/07/02 05:53:07;;;;;;;;;13.60;12.60;;;;;25.93;54.22;99598.06;5087607;28;8990;-73
2022/07/02 05:55:37;;;;;;;;;11.40;11.20;;;;;26.10;54.08;99612.16;5087504;28;8824;-74
2022/07/02 05:58:07;;;;;;;;;15.80;14.60;;;;;26.24;53.84;99612.16;5088743;28;8874;-75
2022/07/02 06:00:35;;;;;;;;;18.00;17.80;;;;;26.51;52.71;99587.25;5089031;28;8967;-74
2022/07/02 06:03:04;;;;;;;;;16.00;16.00;;;;;26.76;52.50;99592.69;5106544;28;8832;-74
2022/07/02 06:08:19;;;;;;;;;16.20;14.40;;;;;27.07;50.40;99587.06;5108048;28;9629;-75
2022/07/02 06:10:49;;;;;;;;;11.80;10.60;;;;;27.08;50.49;99572.75;5109234;28;8859;-75
2022/07/02 06:13:17;;;;;;;;;14.80;14.20;;;;;27.23;50.09;99579.72;5093340;28;8855;-79
2022/07/02 06:15:46;;;;;;;;;14.80;13.60;;;;;27.45;50.05;99567.53;5090312;28;8824;-74
2022/07/02 06:18:14;;;;;;;;;13.40;11.80;;;;;27.55;49.21;99550.69;5039891;28;8832;-72
2022/07/02 06:20:43;;;;;;;;;13.00;12.20;;;;;27.76;49.11;99566.22;5105888;28;8954;-73
2022/07/02 06:23:12;;;;;;;;;13.00;13.00;;;;;27.98;48.48;99566.41;5106320;28;8891;-73
2022/07/02 06:25:40;;;;;;;;;15.20;14.80;;;;;28.21;48.00;99571.06;5055826;28;8986;-74
2022/07/02 06:28:10;;;;;;;;;14.40;14.20;;;;;28.49;47.15;99561.84;5107358;28;8836;-72
2022/07/02 06:30:38;;;;;;;;;15.40;14.80;;;;;28.62;46.60;99568.03;5056948;28;8866;-72
2022/07/02 06:33:07;;;;;;;;;15.80;15.40;;;;;28.70;46.09;99570.13;5105348;28;8890;-72
2022/07/02 06:35:35;;;;;;;;;16.80;15.80;;;;;28.91;45.90;99575.69;5090342;28;8851;-74
2022/07/02 06:38:04;;;;;;;;;13.20;13.00;;;;;28.99;44.47;99578.63;5092068;28;8844;-71
2022/07/02 06:40:33;;;;;;;;;14.60;12.80;;;;;29.13;43.86;99565.03;5092264;28;8874;-72
2022/07/02 06:43:01;;;;;;;;;13.40;12.60;;;;;29.26;42.58;99572.13;5094377;28;8954;-73
2022/07/02 06:45:31;;;;;;;;;14.20;12.00;;;;;29.20;42.57;99570.78;5095840;28;8835;-72
2022/07/02 06:48:00;;;;;;;;;13.20;12.40;;;;;29.48;42.36;99569.47;5093292;28;8984;-73
2022/07/02 06:50:28;;;;;;;;;14.00;13.00;;;;;29.37;40.85;99557.88;5091775;28;8970;-74
2022/07/02 06:53:02;;;;;;;;;13.80;12.60;;;;;29.63;40.88;99563.88;5091880;28;8862;-72
2022/07/02 06:55:31;;;;;;;;;11.40;11.20;;;;;29.84;40.28;99556.78;5091655;28;8847;-74
2022/07/02 06:58:00;;;;;;;;;13.00;12.40;;;;;29.87;38.81;99551.16;5091158;28;8848;-74
2022/07/02 07:00:28;;;;;;;;;11.60;11.60;;;;;30.09;38.34;99549.41;5091759;28;8885;-73
2022/07/02 07:02:58;;;;;;;;;9.60;9.60;;;;;30.22;37.91;99552.78;5091254;28;8987;-73
2022/07/02 07:05:27;;;;;;;;;9.60;9.60;;;;;30.26;38.19;99559.63;5091495;28;9625;-74
2022/07/02 07:07:55;;;;;;;;;8.60;8.20;;;;;30.48;38.54;99561.44;5072724;28;9344;-72
2022/07/02 07:10:24;;;;;;;;;11.20;9.60;;;;;30.61;38.99;99573.88;5090347;28;8924;-73
2022/07/02 07:12:52;;;;;;;;;9.80;9.00;;;;;30.78;37.73;99567.94;5091375;28;8847;-73
2022/07/02 07:15:21;;;;;;;;;9.00;9.00;;;;;30.93;37.31;99594.56;5091307;28;8844;-73
2022/07/02 07:17:50;;;;;;;;;9.60;8.00;;;;;30.58;37.26;99630.66;5091221;28;8906;-74
2022/07/02 07:20:26;;;;;;;;;11.00;9.80;;;;;29.62;37.94;99656.22;5091329;28;8865;-74
2022/07/02 07:22:56;;;;;;;;;8.60;7.80;;;;;28.72;38.74;99641.50;5072097;28;8947;-75
2022/07/02 07:25:24;;;;;;;;;8.00;7.80;;;;;27.99;40.25;99678.03;5072914;28;8895;-75
2022/07/02 07:27:53;;;;;;;;;10.40;8.40;;;;;27.94;40.45;99652.50;5089670;28;8869;-74
2022/07/02 07:30:21;;;;;;;;;11.00;9.80;;;;;27.88;40.74;99667.16;5089489;28;8843;-71
2022/07/02 07:32:50;;;;;;;;;12.40;11.00;;;;;27.32;46.79;99669.31;5091155;28;8990;-72
2022/07/02 07:35:19;;;;;;;;;10.40;9.20;;;;;27.16;49.41;99664.94;5089825;28;8966;-74
2022/07/02 07:37:59;;;;;;;;;8.40;8.40;;;;;26.88;50.72;99667.75;5090649;28;8858;-75
2022/07/02 07:40:28;;;;;;;;;9.80;8.60;;;;;26.22;52.85;99681.75;5090951;28;8958;-73
2022/07/02 07:42:57;;;;;;;;;10.60;10.00;;;;;26.02;53.77;99677.66;5090757;28;8843;-73
2022/07/02 07:45:25;;;;;;;;;7.60;7.00;;;;;25.73;54.76;99670.53;5090834;28;8883;-74
2022/07/02 07:47:54;;;;;;;;;10.20;7.60;;;;;25.70;55.59;99676.94;5090894;28;8839;-71
2022/07/02 07:50:24;;;;;;;;;7.00;6.20;;;;;25.29;56.43;99683.84;5090845;28;8867;-73
2022/07/02 07:52:53;;;;;;;;;12.20;12.20;;;;;25.25;56.39;99682.28;5089095;28;8951;-76
2022/07/02 07:55:21;;;;;;;;;7.00;7.00;;;;;25.26;55.68;99681.34;5089059;28;8836;-74
2022/07/02 07:57:50;;;;;;;;;8.80;8.80;;;;;25.24;56.22;99672.56;5072714;28;8835;-74
2022/07/02 08:00:19;;;;;;;;;8.00;8.00;;;;;24.94;57.85;99679.69;5074064;28;8832;-73
2022/07/02 08:02:48;;;;;;;;;10.00;9.80;;;;;25.00;58.20;99668.63;5091444;28;8847;-73
2022/07/02 08:05:16;;;;;;;;;7.00;7.00;;;;;24.92;58.35;99657.56;5090550;28;8836;-74
2022/07/02 08:07:46;;;;;;;;;5.80;5.40;;;;;24.98;58.22;99657.19;5090931;28;8854;-75
2022/07/02 08:10:16;;;;;;;;;8.20;7.40;;;;;25.02;58.17;99674.75;5088079;28;8981;-75
2022/07/02 08:12:46;;;;;;;;;8.00;8.00;;;;;25.03;58.44;99663.13;5090269;28;8909;-74
2022/07/02 08:15:14;;;;;;;;;8.80;8.40;;;;;25.15;58.01;99667.72;5090313;28;8962;-72
2022/07/02 08:17:43;;;;;;;;;5.60;5.00;;;;;25.10;57.96;99659.13;5070923;28;8855;-75
2022/07/02 08:20:13;;;;;;;;;6.40;6.40;;;;;25.20;56.90;99655.00;5090950;28;8840;-76
2022/07/02 08:22:43;;;;;;;;;7.80;6.00;;;;;25.15;57.15;99667.72;5089735;28;8909;-75
2022/07/02 08:25:12;;;;;;;;;8.20;6.60;;;;;25.62;56.34;99671.22;5090441;28;8863;-74
2022/07/02 08:27:41;;;;;;;;;8.20;8.00;;;;;26.05;54.39;99682.81;5090342;28;9589;-74
2022/07/02 08:30:11;;;;;;;;;7.80;7.80;;;;;25.86;53.61;99687.56;5090323;28;8885;-75
2022/07/02 08:32:40;;;;;;;;;7.00;7.00;;;;;26.01;52.96;99678.63;5090565;28;8843;-74
2022/07/02 08:35:14;;;;;;;;;7.00;7.00;;;;;26.26;52.33;99683.28;5090358;28;8836;-75
2022/07/02 08:37:42;;;;;;;;;8.20;7.20;;;;;26.49;51.55;99674.75;5089934;28;8985;-75
2022/07/02 08:40:13;;;;;;;;;9.40;8.60;;;;;26.70;51.06;99680.53;5089987;28;8871;-75
2022/07/02 08:42:42;;;;;;;;;6.60;6.60;;;;;27.02;50.38;99681.09;5088219;28;8904;-76
2022/07/02 08:45:12;;;;;;;;;10.00;8.80;;;;;27.04;50.90;99669.31;5089691;28;8906;-76
2022/07/02 08:47:45;;;;;;;;;11.40;9.00;;;;;27.16;50.91;99694.38;5088257;28;8836;-78
2022/07/02 08:50:16;;;;;;;;;8.80;7.20;;;;;26.64;52.17;99690.69;5088267;28;8832;-76
2022/07/02 08:52:46;;;;;;;;;11.80;10.80;;;;;26.47;52.81;99711.44;5089603;28;8973;-75
2022/07/02 08:55:17;;;;;;;;;7.80;6.40;;;;;26.70;52.23;99707.31;5089668;28;8856;-76
2022/07/02 08:57:48;;;;;;;;;2.00;2.00;;;;;26.59;52.30;99713.31;5089364;28;9659;-75
2022/07/02 09:00:17;;;;;;;;;5.80;5.80;;;;;26.82;51.88;99726.09;5089409;28;8848;-76
2022/07/02 09:02:47;;;;;;;;;6.20;6.00;;;;;27.00;52.47;99732.03;5070617;28;8859;-72
2022/07/02 09:05:17;;;;;;;;;8.60;8.60;;;;;26.86;52.84;99728.56;5089100;28;8871;-76
2022/07/02 09:07:46;;;;;;;;;7.60;7.60;;;;;26.89;51.93;99745.28;5088044;28;8940;-76
2022/07/02 09:10:17;;;;;;;;;6.40;6.40;;;;;26.67;53.06;99750.28;5087874;28;8860;-77
2022/07/02 09:12:46;;;;;;;;;7.00;7.00;;;;;26.06;54.28;99750.47;5089314;28;8899;-73
2022/07/02 09:15:15;;;;;;;;;6.20;6.20;;;;;25.78;55.33;99751.28;5089557;28;8860;-75
2022/07/02 09:17:45;;;;;;;;;8.80;8.20;;;;;25.72;56.22;99751.66;5070920;28;9005;-73
2022/07/02 09:20:14;;;;;;;;;10.80;9.20;;;;;25.77;56.00;99752.25;5087757;28;8840;-72
2022/07/02 09:22:45;;;;;;;;;7.20;7.20;;;;;25.71;56.86;99758.81;5088784;28;8884;-73
2022/07/02 09:25:17;;;;;;;;;6.80;4.80;;;;;25.91;55.92;99764.75;5088939;28;8863;-73
2022/07/02 09:27:47;;;;;;;;;6.00;6.00;;;;;25.39;57.45;99774.91;5088646;28;8843;-73
2022/07/02 09:30:19;;;;;;;;;8.00;7.60;;;;;25.04;58.74;99774.25;5088795;28;8866;-73
2022/07/02 09:33:28;;;;;;;;;8.80;6.60;;;;;25.07;57.79;99776.75;5088444;28;8832;-73
2022/07/02 09:35:42;;;;;;;;;6.00;6.00;;;;;24.84;58.26;99784.25;5089099;28;8955;-71
2022/07/02 09:38:12;;;;;;;;;8.80;7.60;;;;;24.87;58.35;99791.19;5088643;28;8831;-74
2022/07/02 09:40:52;;;;;;;;;10.20;9.20;;;;;24.86;58.14;99795.69;5088819;28;8848;-74
2022/07/02 09:43:26;;;;;;;;;9.80;9.80;;;;;24.66;58.43;99796.78;5088643;28;8843;-71
2022/07/02 09:45:55;;;;;;;;;7.00;6.60;;;;;24.83;58.30;99795.00;5088791;28;9061;-73
2022/07/02 09:48:24;;;;;;;;;8.00;7.40;;;;;25.13;57.40;99792.41;5088445;28;8866;-73
2022/07/02 09:50:54;;;;;;;;;8.40;8.40;;;;;25.22;57.64;99791.03;5090824;28;8917;-72
2022/07/02 09:53:23;;;;;;;;;7.00;7.00;;;;;25.14;57.40;99783.47;5053290;28;8864;-74
2022/07/02 09:55:54;;;;;;;;;7.00;6.80;;;;;24.93;58.33;99798.84;5088912;28;8866;-75
2022/07/02 09:58:26;;;;;;;;;6.60;6.60;;;;;24.80;59.36;99796.03;5069507;28;8863;-73
2022/07/02 10:01:01;;;;;;;;;11.40;10.40;;;;;25.14;58.60;99787.91;5088547;28;8851;-77
2022/07/02 10:03:30;;;;;;;;;8.60;8.60;;;;;25.35;57.06;99788.53;5088718;28;8971;-73
2022/07/02 10:05:59;;;;;;;;;9.80;9.80;;;;;25.41;57.56;99778.34;5087580;28;8921;-74
2022/07/02 10:08:30;;;;;;;;;8.00;7.00;;;;;25.10;58.03;99790.78;5087147;28;8864;-75
2022/07/02 10:11:00;;;;;;;;;7.60;7.60;;;;;25.14;58.29;99795.94;5091726;28;8882;-73
2022/07/02 10:13:33;;;;;;;;;9.20;7.80;;;;;25.02;58.08;99789.47;5073697;28;8852;-74
2022/07/02 10:16:04;;;;;;;;;2.00;2.00;;;;;24.88;58.57;99780.44;5057136;28;8835;-77
2022/07/02 10:18:35;;;;;;;;;9.00;9.00;;;;;24.79;58.74;99786.28;5092617;28;8835;-80
2022/07/02 10:21:04;;;;;;;;;5.40;5.40;;;;;24.55;60.10;99787.66;5091641;28;8828;-72
2022/07/02 10:23:35;;;;;;;;;12.80;10.80;;;;;24.96;59.04;99780.00;5090954;28;8954;-76
2022/07/02 10:26:05;;;;;;;;;5.40;5.40;;;;;25.03;58.18;99773.38;5092080;28;9007;-76
2022/07/02 10:28:34;;;;;;;;;11.80;11.20;;;;;25.44;56.96;99774.63;5092893;28;8866;-76
2022/07/02 10:31:04;;;;;;;;;8.60;8.40;;;;;25.90;56.45;99766.56;5091353;28;8998;-77
2022/07/02 10:33:43;;;;;;;;;8.40;8.40;;;;;26.23;54.66;99760.13;5092863;28;8849;-77
2022/07/02 10:36:15;;;;;;;;;11.00;9.20;;;;;26.16;54.99;99774.81;5091027;28;8929;-75
2022/07/02 10:38:55;;;;;;;;;11.40;11.40;;;;;26.08;55.87;99769.94;5073586;28;8916;-75
2022/07/02 10:41:30;;;;;;;;;9.80;9.80;;;;;26.18;55.70;99773.81;5092015;28;8852;-76
2022/07/02 10:44:00;;;;;;;;;8.60;6.80;;;;;25.76;57.46;99771.88;5091632;28;8852;-75
2022/07/02 10:46:35;;;;;;;;;10.40;10.40;;;;;25.90;58.01;99757.69;5090382;28;8878;-75
2022/07/02 10:49:05;;;;;;;;;8.60;8.00;;;;;25.82;57.58;99758.13;5089804;28;8875;-73
2022/07/02 10:51:36;;;;;;;;;7.00;6.60;;;;;25.88;57.64;99772.00;5091688;28;8856;-71
2022/07/02 10:54:06;;;;;;;;;9.20;9.20;;;;;25.47;57.95;99782.47;5091773;28;8870;-75
2022/07/02 10:56:46;;;;;;;;;8.80;7.80;;;;;25.66;58.19;99767.09;5090305;28;8839;-76
2022/07/02 10:59:22;;;;;;;;;12.40;11.80;;;;;25.98;57.08;99769.66;5073416;28;8839;-73
2022/07/02 11:02:01;;;;;;;;;9.20;9.20;;;;;25.95;56.68;99769.00;5072492;28;9665;-74
2022/07/02 11:04:30;;;;;;;;;8.40;8.40;;;;;26.00;56.12;99767.75;5091580;28;8908;-72
2022/07/02 11:07:06;;;;;;;;;8.00;8.00;;;;;26.06;55.24;99782.56;5091433;28;9640;-70
2022/07/02 11:09:48;;;;;;;;;8.00;8.00;;;;;25.81;55.71;99772.47;5068359;28;9677;-73
2022/07/02 11:12:28;;;;;;;;;9.80;9.40;;;;;25.73;55.64;99774.72;5068616;28;8843;-74
2022/07/02 11:14:57;;;;;;;;;9.00;9.00;;;;;26.22;54.93;99775.31;5068366;28;9708;-73
2022/07/02 11:17:49;;;;;;;;;11.60;10.60;;;;;26.57;54.08;99758.00;5068362;28;8870;-73
2022/07/02 11:20:24;;;;;;;;;7.80;7.80;;;;;26.25;54.89;99771.59;5068039;28;8848;-74
2022/07/02 11:22:55;;;;;;;;;10.80;10.80;;;;;26.50;54.50;99794.13;5068377;28;8982;-72
2022/07/02 11:25:24;;;;;;;;;7.80;7.40;;;;;26.02;56.38;99779.22;5034861;28;8858;-74
2022/07/02 11:27:58;;;;;;;;;12.40;10.40;;;;;26.24;55.65;99780.59;5068469;28;8848;-73
2022/07/02 11:30:29;;;;;;;;;8.80;8.80;;;;;25.93;56.50;99789.59;5068074;28;8932;-73
2022/07/02 11:32:58;;;;;;;;;9.00;9.00;;;;;25.96;56.65;99784.94;5068126;28;8876;-73
2022/07/02 11:35:27;;;;;;;;;9.80;9.60;;;;;26.25;55.26;99780.47;5067838;28;8860;-74
2022/07/02 11:37:56;;;;;;;;;11.20;9.00;;;;;26.52;53.46;99782.41;5070203;28;8999;-74
2022/07/02 11:40:26;;;;;;;;;7.20;7.20;;;;;26.49;53.05;99771.03;5052827;28;8889;-76
2022/07/02 11:42:55;;;;;;;;;9.40;8.40;;;;;26.66;52.78;99778.03;5068074;28;8855;-75
2022/07/02 11:45:25;;;;;;;;;9.00;9.00;;;;;26.50;52.25;99770.91;5068175;28;8828;-75
2022/07/02 11:47:54;;;;;;;;;8.60;7.60;;;;;26.33;54.07;99782.66;5085432;28;8962;-78
2022/07/02 11:50:31;;;;;;;;;10.20;10.20;;;;;26.45;53.81;99763.19;5090587;28;9151;-76